sensor_id;sensor_type;location;lat;lon;timestamp;P1;durP1;ratioP1;P2;durP2;ratioP2
75135;SDS011;63707;52.212;9.540;2023-06-22T00:01:11;10.38;;;8.35;;
75135;SDS011;63707;52.212;9.540;2023-06-22T00:03:36;11.35;;;8.63;;
75135;SDS011;63707;52.212;9.540;2023-06-22T00:06:02;13.05;;;8.45;;
75135;SDS011;63707;52.212;9.540;2023-06-22T00:08:27;12.68;;;8.63;;
75135;SDS011;63707;52.212;9.540;2023-06-22T00:10:54;10.07;;;8.27;;
75135;SDS011;63707;52.212;9.540;2023-06-22T00:13:19;10.30;;;8.07;;
75135;SDS011;63707;52.212;9.540;2023-06-22T00:15:45;12.77;;;8.88;;
75135;SDS011;63707;52.212;9.540;2023-06-22T00:18:10;11.82;;;8.18;;
75135;SDS011;63707;52.212;9.540;2023-06-22T00:20:38;11.20;;;8.32;;
75135;SDS011;63707;52.212;9.540;2023-06-22T00:23:04;10.88;;;8.23;;
75135;SDS011;63707;52.212;9.540;2023-06-22T00:25:33;11.23;;;8.77;;
75135;SDS011;63707;52.212;9.540;2023-06-22T00:28:00;11.80;;;8.63;;
75135;SDS011;63707;52.212;9.540;2023-06-22T00:30:26;10.43;;;7.93;;
75135;SDS011;63707;52.212;9.540;2023-06-22T00:32:51;10.90;;;8.35;;
75135;SDS011;63707;52.212;9.540;2023-06-22T00:35:17;11.57;;;8.38;;
75135;SDS011;63707;52.212;9.540;2023-06-22T00:37:42;10.68;;;8.30;;
75135;SDS011;63707;52.212;9.540;2023-06-22T00:40:08;11.25;;;8.77;;
75135;SDS011;63707;52.212;9.540;2023-06-22T00:42:36;11.02;;;8.27;;
75135;SDS011;63707;52.212;9.540;2023-06-22T00:45:04;11.05;;;8.35;;
75135;SDS011;63707;52.212;9.540;2023-06-22T00:47:30;11.15;;;9.13;;
75135;SDS011;63707;52.212;9.540;2023-06-22T00:49:56;10.88;;;8.63;;
75135;SDS011;63707;52.212;9.540;2023-06-22T00:52:21;10.95;;;9.18;;
75135;SDS011;63707;52.212;9.540;2023-06-22T00:54:53;11.55;;;8.75;;
75135;SDS011;63707;52.212;9.540;2023-06-22T00:57:20;10.48;;;8.77;;
75135;SDS011;63707;52.212;9.540;2023-06-22T00:59:47;12.35;;;8.10;;
75135;SDS011;63707;52.212;9.540;2023-06-22T01:02:15;9.70;;;7.82;;
75135;SDS011;63707;52.212;9.540;2023-06-22T01:04:40;14.32;;;9.60;;
75135;SDS011;63707;52.212;9.540;2023-06-22T01:07:13;10.98;;;8.88;;
75135;SDS011;63707;52.212;9.540;2023-06-22T01:09:49;11.27;;;8.82;;
75135;SDS011;63707;52.212;9.540;2023-06-22T01:12:22;13.27;;;9.02;;
75135;SDS011;63707;52.212;9.540;2023-06-22T01:14:50;12.25;;;9.10;;
75135;SDS011;63707;52.212;9.540;2023-06-22T01:17:20;12.20;;;9.00;;
75135;SDS011;63707;52.212;9.540;2023-06-22T01:19:47;11.02;;;8.88;;
75135;SDS011;63707;52.212;9.540;2023-06-22T01:22:21;12.30;;;8.97;;
75135;SDS011;63707;52.212;9.540;2023-06-22T01:24:51;10.90;;;8.57;;
75135;SDS011;63707;52.212;9.540;2023-06-22T01:27:32;13.30;;;8.45;;
75135;SDS011;63707;52.212;9.540;2023-06-22T01:30:11;13.10;;;9.57;;
75135;SDS011;63707;52.212;9.540;2023-06-22T01:32:40;12.02;;;9.40;;
75135;SDS011;63707;52.212;9.540;2023-06-22T01:35:07;11.80;;;8.98;;
75135;SDS011;63707;52.212;9.540;2023-06-22T01:37:34;11.65;;;9.73;;
75135;SDS011;63707;52.212;9.540;2023-06-22T01:40:02;12.77;;;9.57;;
75135;SDS011;63707;52.212;9.540;2023-06-22T01:42:31;9.20;;;8.00;;
75135;SDS011;63707;52.212;9.540;2023-06-22T01:44:57;12.55;;;9.35;;
75135;SDS011;63707;52.212;9.540;2023-06-22T01:47:25;13.82;;;9.32;;
75135;SDS011;63707;52.212;9.540;2023-06-22T01:49:52;11.90;;;8.93;;
75135;SDS011;63707;52.212;9.540;2023-06-22T01:52:18;15.10;;;10.18;;
75135;SDS011;63707;52.212;9.540;2023-06-22T01:54:45;10.90;;;8.52;;
75135;SDS011;63707;52.212;9.540;2023-06-22T01:57:11;12.35;;;9.55;;
75135;SDS011;63707;52.212;9.540;2023-06-22T01:59:39;13.13;;;10.02;;
75135;SDS011;63707;52.212;9.540;2023-06-22T02:02:13;12.88;;;9.55;;
75135;SDS011;63707;52.212;9.540;2023-06-22T02:04:42;11.98;;;9.73;;
75135;SDS011;63707;52.212;9.540;2023-06-22T02:07:12;13.07;;;9.52;;
75135;SDS011;63707;52.212;9.540;2023-06-22T02:09:39;12.45;;;9.38;;
75135;SDS011;63707;52.212;9.540;2023-06-22T02:12:08;11.25;;;8.93;;
75135;SDS011;63707;52.212;9.540;2023-06-22T02:14:36;12.10;;;9.07;;
75135;SDS011;63707;52.212;9.540;2023-06-22T02:17:02;12.38;;;9.57;;
75135;SDS011;63707;52.212;9.540;2023-06-22T02:19:32;13.38;;;9.88;;
75135;SDS011;63707;52.212;9.540;2023-06-22T02:22:03;14.35;;;10.10;;
75135;SDS011;63707;52.212;9.540;2023-06-22T02:24:28;13.38;;;9.95;;
75135;SDS011;63707;52.212;9.540;2023-06-22T02:26:56;12.52;;;10.00;;
75135;SDS011;63707;52.212;9.540;2023-06-22T02:29:22;13.48;;;10.27;;
75135;SDS011;63707;52.212;9.540;2023-06-22T02:31:48;13.35;;;10.57;;
75135;SDS011;63707;52.212;9.540;2023-06-22T02:34:13;15.32;;;10.43;;
75135;SDS011;63707;52.212;9.540;2023-06-22T02:36:43;14.43;;;10.38;;
75135;SDS011;63707;52.212;9.540;2023-06-22T02:39:17;15.15;;;11.18;;
75135;SDS011;63707;52.212;9.540;2023-06-22T02:41:45;15.02;;;11.18;;
75135;SDS011;63707;52.212;9.540;2023-06-22T02:44:10;13.40;;;10.55;;
75135;SDS011;63707;52.212;9.540;2023-06-22T02:46:36;13.82;;;10.68;;
75135;SDS011;63707;52.212;9.540;2023-06-22T02:49:01;12.88;;;10.10;;
75135;SDS011;63707;52.212;9.540;2023-06-22T02:51:27;16.17;;;11.10;;
75135;SDS011;63707;52.212;9.540;2023-06-22T02:53:52;15.57;;;11.20;;
75135;SDS011;63707;52.212;9.540;2023-06-22T02:56:23;14.30;;;10.38;;
75135;SDS011;63707;52.212;9.540;2023-06-22T02:58:50;13.43;;;10.80;;
75135;SDS011;63707;52.212;9.540;2023-06-22T03:01:15;12.80;;;10.23;;
75135;SDS011;63707;52.212;9.540;2023-06-22T03:03:41;15.45;;;11.10;;
75135;SDS011;63707;52.212;9.540;2023-06-22T03:06:06;12.73;;;10.40;;
75135;SDS011;63707;52.212;9.540;2023-06-22T03:08:32;13.50;;;10.27;;
75135;SDS011;63707;52.212;9.540;2023-06-22T03:10:57;17.00;;;10.82;;
75135;SDS011;63707;52.212;9.540;2023-06-22T03:13:24;13.68;;;10.98;;
75135;SDS011;63707;52.212;9.540;2023-06-22T03:15:50;14.55;;;10.45;;
75135;SDS011;63707;52.212;9.540;2023-06-22T03:18:15;14.38;;;10.80;;
75135;SDS011;63707;52.212;9.540;2023-06-22T03:20:41;12.60;;;10.02;;
75135;SDS011;63707;52.212;9.540;2023-06-22T03:23:06;13.93;;;10.30;;
75135;SDS011;63707;52.212;9.540;2023-06-22T03:25:32;13.32;;;10.40;;
75135;SDS011;63707;52.212;9.540;2023-06-22T03:27:58;12.95;;;10.00;;
75135;SDS011;63707;52.212;9.540;2023-06-22T03:30:26;15.35;;;11.20;;
75135;SDS011;63707;52.212;9.540;2023-06-22T03:32:52;14.20;;;10.30;;
75135;SDS011;63707;52.212;9.540;2023-06-22T03:35:18;12.50;;;9.90;;
75135;SDS011;63707;52.212;9.540;2023-06-22T03:37:43;15.38;;;10.23;;
75135;SDS011;63707;52.212;9.540;2023-06-22T03:40:09;15.93;;;10.90;;
75135;SDS011;63707;52.212;9.540;2023-06-22T03:42:35;14.57;;;10.82;;
75135;SDS011;63707;52.212;9.540;2023-06-22T03:45:01;16.10;;;11.65;;
75135;SDS011;63707;52.212;9.540;2023-06-22T03:47:28;15.68;;;10.90;;
75135;SDS011;63707;52.212;9.540;2023-06-22T03:49:53;13.25;;;10.65;;
75135;SDS011;63707;52.212;9.540;2023-06-22T03:52:20;14.95;;;11.07;;
75135;SDS011;63707;52.212;9.540;2023-06-22T03:54:45;15.80;;;10.70;;
75135;SDS011;63707;52.212;9.540;2023-06-22T03:57:11;13.45;;;10.93;;
75135;SDS011;63707;52.212;9.540;2023-06-22T03:59:36;14.23;;;10.48;;
75135;SDS011;63707;52.212;9.540;2023-06-22T04:02:02;15.80;;;11.35;;
75135;SDS011;63707;52.212;9.540;2023-06-22T04:04:29;16.13;;;11.90;;
75135;SDS011;63707;52.212;9.540;2023-06-22T04:06:54;16.70;;;12.52;;
75135;SDS011;63707;52.212;9.540;2023-06-22T04:09:20;20.90;;;14.25;;
75135;SDS011;63707;52.212;9.540;2023-06-22T04:11:46;19.80;;;13.38;;
75135;SDS011;63707;52.212;9.540;2023-06-22T04:14:12;18.63;;;13.02;;
75135;SDS011;63707;52.212;9.540;2023-06-22T04:16:37;15.35;;;11.98;;
75135;SDS011;63707;52.212;9.540;2023-06-22T04:19:03;16.67;;;12.10;;
75135;SDS011;63707;52.212;9.540;2023-06-22T04:21:30;16.02;;;12.57;;
75135;SDS011;63707;52.212;9.540;2023-06-22T04:23:55;19.85;;;12.90;;
75135;SDS011;63707;52.212;9.540;2023-06-22T04:26:21;17.27;;;12.55;;
75135;SDS011;63707;52.212;9.540;2023-06-22T04:28:46;15.60;;;12.15;;
75135;SDS011;63707;52.212;9.540;2023-06-22T04:31:16;18.00;;;12.25;;
75135;SDS011;63707;52.212;9.540;2023-06-22T04:33:42;16.92;;;12.73;;
75135;SDS011;63707;52.212;9.540;2023-06-22T04:36:07;18.42;;;13.82;;
75135;SDS011;63707;52.212;9.540;2023-06-22T04:38:34;18.70;;;13.35;;
75135;SDS011;63707;52.212;9.540;2023-06-22T04:41:00;18.50;;;13.60;;
75135;SDS011;63707;52.212;9.540;2023-06-22T04:43:27;17.30;;;12.98;;
75135;SDS011;63707;52.212;9.540;2023-06-22T04:45:55;18.85;;;12.95;;
75135;SDS011;63707;52.212;9.540;2023-06-22T04:48:20;19.38;;;14.38;;
75135;SDS011;63707;52.212;9.540;2023-06-22T04:50:46;18.90;;;14.25;;
75135;SDS011;63707;52.212;9.540;2023-06-22T04:53:11;18.60;;;14.07;;
75135;SDS011;63707;52.212;9.540;2023-06-22T04:55:39;20.48;;;14.85;;
75135;SDS011;63707;52.212;9.540;2023-06-22T04:58:06;21.27;;;14.10;;
75135;SDS011;63707;52.212;9.540;2023-06-22T05:00:32;18.70;;;13.13;;
75135;SDS011;63707;52.212;9.540;2023-06-22T05:03:01;17.08;;;13.05;;
75135;SDS011;63707;52.212;9.540;2023-06-22T05:05:28;17.42;;;13.00;;
75135;SDS011;63707;52.212;9.540;2023-06-22T05:07:55;19.23;;;12.80;;
75135;SDS011;63707;52.212;9.540;2023-06-22T05:10:24;16.48;;;12.82;;
75135;SDS011;63707;52.212;9.540;2023-06-22T05:12:52;18.15;;;12.95;;
75135;SDS011;63707;52.212;9.540;2023-06-22T05:15:17;16.52;;;12.40;;
75135;SDS011;63707;52.212;9.540;2023-06-22T05:17:44;19.02;;;12.65;;
75135;SDS011;63707;52.212;9.540;2023-06-22T05:20:10;20.02;;;15.52;;
75135;SDS011;63707;52.212;9.540;2023-06-22T05:22:37;16.10;;;13.52;;
75135;SDS011;63707;52.212;9.540;2023-06-22T05:25:04;20.77;;;15.00;;
75135;SDS011;63707;52.212;9.540;2023-06-22T05:27:31;18.45;;;13.27;;
75135;SDS011;63707;52.212;9.540;2023-06-22T05:29:58;20.13;;;13.07;;
75135;SDS011;63707;52.212;9.540;2023-06-22T05:32:23;18.13;;;13.38;;
75135;SDS011;63707;52.212;9.540;2023-06-22T05:34:49;17.80;;;13.52;;
75135;SDS011;63707;52.212;9.540;2023-06-22T05:37:14;19.85;;;13.40;;
75135;SDS011;63707;52.212;9.540;2023-06-22T05:39:40;21.05;;;13.68;;
75135;SDS011;63707;52.212;9.540;2023-06-22T05:42:05;16.92;;;12.50;;
75135;SDS011;63707;52.212;9.540;2023-06-22T05:44:32;20.38;;;12.70;;
75135;SDS011;63707;52.212;9.540;2023-06-22T05:47:00;19.52;;;13.95;;
75135;SDS011;63707;52.212;9.540;2023-06-22T05:49:25;19.13;;;14.13;;
75135;SDS011;63707;52.212;9.540;2023-06-22T05:51:57;19.50;;;15.07;;
75135;SDS011;63707;52.212;9.540;2023-06-22T05:54:23;19.73;;;14.35;;
75135;SDS011;63707;52.212;9.540;2023-06-22T05:56:48;21.95;;;15.48;;
75135;SDS011;63707;52.212;9.540;2023-06-22T05:59:14;19.50;;;15.15;;
75135;SDS011;63707;52.212;9.540;2023-06-22T06:01:39;21.38;;;15.50;;
75135;SDS011;63707;52.212;9.540;2023-06-22T06:04:06;21.88;;;17.10;;
75135;SDS011;63707;52.212;9.540;2023-06-22T06:06:34;23.23;;;16.83;;
75135;SDS011;63707;52.212;9.540;2023-06-22T06:09:02;22.52;;;16.30;;
75135;SDS011;63707;52.212;9.540;2023-06-22T06:11:27;22.50;;;15.75;;
75135;SDS011;63707;52.212;9.540;2023-06-22T06:13:53;21.70;;;15.70;;
75135;SDS011;63707;52.212;9.540;2023-06-22T06:16:19;21.55;;;15.30;;
75135;SDS011;63707;52.212;9.540;2023-06-22T06:18:44;20.52;;;15.90;;
75135;SDS011;63707;52.212;9.540;2023-06-22T06:21:11;27.02;;;15.95;;
75135;SDS011;63707;52.212;9.540;2023-06-22T06:23:36;22.92;;;16.20;;
75135;SDS011;63707;52.212;9.540;2023-06-22T06:26:02;20.98;;;15.90;;
75135;SDS011;63707;52.212;9.540;2023-06-22T06:28:31;24.92;;;16.92;;
75135;SDS011;63707;52.212;9.540;2023-06-22T06:30:57;22.98;;;17.27;;
75135;SDS011;63707;52.212;9.540;2023-06-22T06:33:23;22.52;;;15.98;;
75135;SDS011;63707;52.212;9.540;2023-06-22T06:35:49;25.42;;;16.15;;
75135;SDS011;63707;52.212;9.540;2023-06-22T06:38:16;23.58;;;16.42;;
75135;SDS011;63707;52.212;9.540;2023-06-22T06:40:41;20.83;;;15.23;;
75135;SDS011;63707;52.212;9.540;2023-06-22T06:43:07;22.63;;;16.77;;
75135;SDS011;63707;52.212;9.540;2023-06-22T06:45:32;21.13;;;15.35;;
75135;SDS011;63707;52.212;9.540;2023-06-22T06:47:59;20.63;;;15.95;;
75135;SDS011;63707;52.212;9.540;2023-06-22T06:50:25;22.23;;;15.35;;
75135;SDS011;63707;52.212;9.540;2023-06-22T06:52:51;21.70;;;16.52;;
75135;SDS011;63707;52.212;9.540;2023-06-22T06:55:18;23.63;;;15.93;;
75135;SDS011;63707;52.212;9.540;2023-06-22T06:57:44;21.63;;;16.00;;
75135;SDS011;63707;52.212;9.540;2023-06-22T07:00:13;18.52;;;14.75;;
75135;SDS011;63707;52.212;9.540;2023-06-22T07:02:40;20.55;;;14.13;;
75135;SDS011;63707;52.212;9.540;2023-06-22T07:05:07;23.30;;;15.98;;
75135;SDS011;63707;52.212;9.540;2023-06-22T07:07:33;21.05;;;15.05;;
75135;SDS011;63707;52.212;9.540;2023-06-22T07:10:00;21.17;;;16.08;;
75135;SDS011;63707;52.212;9.540;2023-06-22T07:12:27;23.25;;;14.57;;
75135;SDS011;63707;52.212;9.540;2023-06-22T07:14:52;19.33;;;13.50;;
75135;SDS011;63707;52.212;9.540;2023-06-22T07:17:18;20.60;;;14.18;;
75135;SDS011;63707;52.212;9.540;2023-06-22T07:19:44;18.63;;;14.27;;
75135;SDS011;63707;52.212;9.540;2023-06-22T07:22:09;21.88;;;14.73;;
75135;SDS011;63707;52.212;9.540;2023-06-22T07:24:35;20.60;;;14.82;;
75135;SDS011;63707;52.212;9.540;2023-06-22T07:27:00;19.02;;;14.38;;
75135;SDS011;63707;52.212;9.540;2023-06-22T07:29:28;19.13;;;14.25;;
75135;SDS011;63707;52.212;9.540;2023-06-22T07:31:54;18.15;;;14.00;;
75135;SDS011;63707;52.212;9.540;2023-06-22T07:34:21;19.23;;;13.43;;
75135;SDS011;63707;52.212;9.540;2023-06-22T07:36:47;18.75;;;14.60;;
75135;SDS011;63707;52.212;9.540;2023-06-22T07:39:13;22.27;;;14.85;;
75135;SDS011;63707;52.212;9.540;2023-06-22T07:41:39;18.10;;;13.73;;
75135;SDS011;63707;52.212;9.540;2023-06-22T07:44:05;19.60;;;13.90;;
75135;SDS011;63707;52.212;9.540;2023-06-22T07:46:32;23.15;;;14.23;;
75135;SDS011;63707;52.212;9.540;2023-06-22T07:48:58;19.33;;;14.35;;
75135;SDS011;63707;52.212;9.540;2023-06-22T07:51:24;19.98;;;14.13;;
75135;SDS011;63707;52.212;9.540;2023-06-22T07:53:50;21.35;;;14.63;;
75135;SDS011;63707;52.212;9.540;2023-06-22T07:56:15;21.25;;;15.10;;
75135;SDS011;63707;52.212;9.540;2023-06-22T07:58:44;21.80;;;15.52;;
75135;SDS011;63707;52.212;9.540;2023-06-22T08:01:10;17.80;;;12.88;;
75135;SDS011;63707;52.212;9.540;2023-06-22T08:03:37;21.05;;;15.20;;
75135;SDS011;63707;52.212;9.540;2023-06-22T08:06:04;20.20;;;14.48;;
75135;SDS011;63707;52.212;9.540;2023-06-22T08:08:30;17.75;;;13.57;;
75135;SDS011;63707;52.212;9.540;2023-06-22T08:10:56;20.98;;;14.68;;
75135;SDS011;63707;52.212;9.540;2023-06-22T08:13:22;18.63;;;13.85;;
75135;SDS011;63707;52.212;9.540;2023-06-22T08:15:47;18.83;;;13.57;;
75135;SDS011;63707;52.212;9.540;2023-06-22T08:18:13;17.98;;;13.52;;
75135;SDS011;63707;52.212;9.540;2023-06-22T08:20:39;18.15;;;14.45;;
75135;SDS011;63707;52.212;9.540;2023-06-22T08:23:05;19.00;;;13.43;;
75135;SDS011;63707;52.212;9.540;2023-06-22T08:25:31;20.63;;;14.40;;
75135;SDS011;63707;52.212;9.540;2023-06-22T08:27:57;18.00;;;13.98;;
75135;SDS011;63707;52.212;9.540;2023-06-22T08:30:23;18.25;;;13.82;;
75135;SDS011;63707;52.212;9.540;2023-06-22T08:32:48;22.15;;;16.30;;
75135;SDS011;63707;52.212;9.540;2023-06-22T08:35:14;23.73;;;15.48;;
75135;SDS011;63707;52.212;9.540;2023-06-22T08:37:41;23.98;;;16.05;;
75135;SDS011;63707;52.212;9.540;2023-06-22T08:40:07;18.77;;;15.18;;
75135;SDS011;63707;52.212;9.540;2023-06-22T08:42:35;21.85;;;16.00;;
75135;SDS011;63707;52.212;9.540;2023-06-22T08:45:01;25.88;;;16.25;;
75135;SDS011;63707;52.212;9.540;2023-06-22T08:47:27;20.77;;;15.32;;
75135;SDS011;63707;52.212;9.540;2023-06-22T08:49:52;21.45;;;15.57;;
75135;SDS011;63707;52.212;9.540;2023-06-22T08:52:18;20.52;;;14.93;;
75135;SDS011;63707;52.212;9.540;2023-06-22T08:54:49;26.00;;;15.95;;
75135;SDS011;63707;52.212;9.540;2023-06-22T08:57:15;23.52;;;15.32;;
75135;SDS011;63707;52.212;9.540;2023-06-22T08:59:41;25.25;;;15.63;;
75135;SDS011;63707;52.212;9.540;2023-06-22T09:02:07;23.42;;;14.98;;
75135;SDS011;63707;52.212;9.540;2023-06-22T09:04:32;22.30;;;14.82;;
75135;SDS011;63707;52.212;9.540;2023-06-22T09:07:00;23.02;;;14.23;;
75135;SDS011;63707;52.212;9.540;2023-06-22T09:09:26;19.42;;;13.73;;
75135;SDS011;63707;52.212;9.540;2023-06-22T09:11:53;22.38;;;14.13;;
75135;SDS011;63707;52.212;9.540;2023-06-22T09:14:19;21.33;;;15.38;;
75135;SDS011;63707;52.212;9.540;2023-06-22T09:16:44;24.80;;;15.18;;
75135;SDS011;63707;52.212;9.540;2023-06-22T09:19:10;20.50;;;14.02;;
75135;SDS011;63707;52.212;9.540;2023-06-22T09:21:35;21.60;;;14.48;;
75135;SDS011;63707;52.212;9.540;2023-06-22T09:24:01;19.17;;;13.75;;
75135;SDS011;63707;52.212;9.540;2023-06-22T09:26:27;19.85;;;13.55;;
75135;SDS011;63707;52.212;9.540;2023-06-22T09:28:54;17.70;;;13.38;;
75135;SDS011;63707;52.212;9.540;2023-06-22T09:31:19;23.83;;;13.45;;
75135;SDS011;63707;52.212;9.540;2023-06-22T09:33:50;19.23;;;13.00;;
75135;SDS011;63707;52.212;9.540;2023-06-22T09:36:16;23.10;;;13.55;;
75135;SDS011;63707;52.212;9.540;2023-06-22T09:38:42;20.33;;;13.98;;
75135;SDS011;63707;52.212;9.540;2023-06-22T09:41:07;18.90;;;13.73;;
75135;SDS011;63707;52.212;9.540;2023-06-22T09:43:33;21.65;;;14.13;;
75135;SDS011;63707;52.212;9.540;2023-06-22T09:46:02;17.67;;;14.30;;
75135;SDS011;63707;52.212;9.540;2023-06-22T09:48:28;19.80;;;14.90;;
75135;SDS011;63707;52.212;9.540;2023-06-22T09:50:55;21.88;;;13.98;;
75135;SDS011;63707;52.212;9.540;2023-06-22T09:53:21;20.08;;;13.65;;
75135;SDS011;63707;52.212;9.540;2023-06-22T09:55:46;18.52;;;13.48;;
75135;SDS011;63707;52.212;9.540;2023-06-22T09:58:11;23.63;;;13.80;;
75135;SDS011;63707;52.212;9.540;2023-06-22T10:00:37;21.73;;;14.25;;
75135;SDS011;63707;52.212;9.540;2023-06-22T10:03:04;17.73;;;13.40;;
75135;SDS011;63707;52.212;9.540;2023-06-22T10:05:29;20.38;;;13.00;;
75135;SDS011;63707;52.212;9.540;2023-06-22T10:07:55;19.05;;;13.20;;
75135;SDS011;63707;52.212;9.540;2023-06-22T10:10:20;21.60;;;13.27;;
75135;SDS011;63707;52.212;9.540;2023-06-22T10:12:46;16.73;;;12.98;;
75135;SDS011;63707;52.212;9.540;2023-06-22T10:15:13;17.17;;;13.13;;
75135;SDS011;63707;52.212;9.540;2023-06-22T10:17:38;19.73;;;12.88;;
75135;SDS011;63707;52.212;9.540;2023-06-22T10:20:06;19.20;;;13.32;;
75135;SDS011;63707;52.212;9.540;2023-06-22T10:25:04;20.08;;;13.48;;
75135;SDS011;63707;52.212;9.540;2023-06-22T10:27:31;19.50;;;13.20;;
75135;SDS011;63707;52.212;9.540;2023-06-22T10:29:56;17.67;;;13.35;;
75135;SDS011;63707;52.212;9.540;2023-06-22T10:32:22;18.85;;;13.18;;
75135;SDS011;63707;52.212;9.540;2023-06-22T10:34:47;17.02;;;13.60;;
75135;SDS011;63707;52.212;9.540;2023-06-22T10:37:14;17.15;;;12.02;;
75135;SDS011;63707;52.212;9.540;2023-06-22T10:39:39;18.10;;;12.75;;
75135;SDS011;63707;52.212;9.540;2023-06-22T10:42:05;18.00;;;13.60;;
75135;SDS011;63707;52.212;9.540;2023-06-22T10:44:31;20.23;;;13.90;;
75135;SDS011;63707;52.212;9.540;2023-06-22T10:46:56;19.83;;;12.90;;
75135;SDS011;63707;52.212;9.540;2023-06-22T10:49:22;23.38;;;13.25;;
75135;SDS011;63707;52.212;9.540;2023-06-22T10:51:47;18.85;;;13.15;;
75135;SDS011;63707;52.212;9.540;2023-06-22T10:54:14;21.42;;;13.90;;
75135;SDS011;63707;52.212;9.540;2023-06-22T10:56:43;19.00;;;14.07;;
75135;SDS011;63707;52.212;9.540;2023-06-22T10:59:08;18.23;;;13.15;;
75135;SDS011;63707;52.212;9.540;2023-06-22T11:01:34;19.13;;;13.18;;
75135;SDS011;63707;52.212;9.540;2023-06-22T11:03:59;20.73;;;13.38;;
75135;SDS011;63707;52.212;9.540;2023-06-22T11:06:25;18.02;;;12.98;;
75135;SDS011;63707;52.212;9.540;2023-06-22T11:08:50;17.48;;;13.48;;
75135;SDS011;63707;52.212;9.540;2023-06-22T11:11:17;17.40;;;13.45;;
75135;SDS011;63707;52.212;9.540;2023-06-22T11:13:43;19.02;;;14.60;;
75135;SDS011;63707;52.212;9.540;2023-06-22T11:16:09;22.85;;;14.00;;
75135;SDS011;63707;52.212;9.540;2023-06-22T11:18:35;21.05;;;13.13;;
75135;SDS011;63707;52.212;9.540;2023-06-22T11:21:01;17.27;;;13.18;;
75135;SDS011;63707;52.212;9.540;2023-06-22T11:23:26;18.23;;;13.70;;
75135;SDS011;63707;52.212;9.540;2023-06-22T11:25:52;20.35;;;14.27;;
75135;SDS011;63707;52.212;9.540;2023-06-22T11:28:19;19.27;;;13.52;;
75135;SDS011;63707;52.212;9.540;2023-06-22T11:30:45;19.45;;;13.65;;
75135;SDS011;63707;52.212;9.540;2023-06-22T11:33:10;19.52;;;12.57;;
75135;SDS011;63707;52.212;9.540;2023-06-22T11:35:36;18.48;;;13.77;;
75135;SDS011;63707;52.212;9.540;2023-06-22T11:38:02;15.32;;;12.57;;
75135;SDS011;63707;52.212;9.540;2023-06-22T11:40:29;15.55;;;11.88;;
75135;SDS011;63707;52.212;9.540;2023-06-22T11:42:55;16.88;;;13.65;;
75135;SDS011;63707;52.212;9.540;2023-06-22T11:45:21;18.10;;;12.65;;
75135;SDS011;63707;52.212;9.540;2023-06-22T11:47:47;16.67;;;13.90;;
75135;SDS011;63707;52.212;9.540;2023-06-22T11:50:13;16.30;;;13.02;;
75135;SDS011;63707;52.212;9.540;2023-06-22T11:52:38;19.65;;;13.65;;
75135;SDS011;63707;52.212;9.540;2023-06-22T11:55:04;14.85;;;12.52;;
75135;SDS011;63707;52.212;9.540;2023-06-22T11:57:32;19.75;;;13.45;;
75135;SDS011;63707;52.212;9.540;2023-06-22T11:59:58;18.00;;;13.63;;
75135;SDS011;63707;52.212;9.540;2023-06-22T12:02:25;18.38;;;14.02;;
75135;SDS011;63707;52.212;9.540;2023-06-22T12:04:50;15.90;;;13.75;;
75135;SDS011;63707;52.212;9.540;2023-06-22T12:07:17;15.05;;;13.02;;
75135;SDS011;63707;52.212;9.540;2023-06-22T12:09:43;19.25;;;12.73;;
75135;SDS011;63707;52.212;9.540;2023-06-22T12:12:09;19.83;;;13.20;;
75135;SDS011;63707;52.212;9.540;2023-06-22T12:14:35;16.95;;;13.52;;
75135;SDS011;63707;52.212;9.540;2023-06-22T12:17:00;18.50;;;13.02;;
75135;SDS011;63707;52.212;9.540;2023-06-22T12:19:27;20.70;;;13.52;;
75135;SDS011;63707;52.212;9.540;2023-06-22T12:21:53;18.77;;;13.80;;
75135;SDS011;63707;52.212;9.540;2023-06-22T12:24:18;17.50;;;13.43;;
75135;SDS011;63707;52.212;9.540;2023-06-22T12:26:44;14.32;;;12.80;;
75135;SDS011;63707;52.212;9.540;2023-06-22T12:29:09;17.05;;;13.77;;
75135;SDS011;63707;52.212;9.540;2023-06-22T12:31:35;18.27;;;13.40;;
75135;SDS011;63707;52.212;9.540;2023-06-22T12:34:01;21.10;;;14.57;;
75135;SDS011;63707;52.212;9.540;2023-06-22T12:36:29;16.70;;;13.70;;
75135;SDS011;63707;52.212;9.540;2023-06-22T12:38:54;16.55;;;13.25;;
75135;SDS011;63707;52.212;9.540;2023-06-22T12:41:20;20.88;;;16.02;;
75135;SDS011;63707;52.212;9.540;2023-06-22T12:43:46;19.42;;;14.57;;
75135;SDS011;63707;52.212;9.540;2023-06-22T12:46:11;20.98;;;17.13;;
75135;SDS011;63707;52.212;9.540;2023-06-22T12:48:37;22.98;;;17.67;;
75135;SDS011;63707;52.212;9.540;2023-06-22T12:51:06;23.20;;;17.65;;
75135;SDS011;63707;52.212;9.540;2023-06-22T12:53:33;21.52;;;17.20;;
75135;SDS011;63707;52.212;9.540;2023-06-22T12:55:59;24.15;;;17.92;;
75135;SDS011;63707;52.212;9.540;2023-06-22T12:58:24;25.35;;;17.33;;
75135;SDS011;63707;52.212;9.540;2023-06-22T13:00:50;19.77;;;16.95;;
75135;SDS011;63707;52.212;9.540;2023-06-22T13:03:15;19.20;;;16.02;;
75135;SDS011;63707;52.212;9.540;2023-06-22T13:05:41;22.00;;;15.98;;
75135;SDS011;63707;52.212;9.540;2023-06-22T13:08:06;19.40;;;15.95;;
75135;SDS011;63707;52.212;9.540;2023-06-22T13:10:34;23.20;;;16.23;;
75135;SDS011;63707;52.212;9.540;2023-06-22T13:12:59;19.83;;;15.45;;
75135;SDS011;63707;52.212;9.540;2023-06-22T13:15:26;17.65;;;14.85;;
75135;SDS011;63707;52.212;9.540;2023-06-22T13:17:52;18.30;;;14.07;;
75135;SDS011;63707;52.212;9.540;2023-06-22T13:20:17;15.50;;;13.80;;
75135;SDS011;63707;52.212;9.540;2023-06-22T13:22:43;18.02;;;14.27;;
75135;SDS011;63707;52.212;9.540;2023-06-22T13:25:09;17.33;;;14.23;;
75135;SDS011;63707;52.212;9.540;2023-06-22T13:27:38;17.42;;;13.88;;
75135;SDS011;63707;52.212;9.540;2023-06-22T13:30:04;18.23;;;13.98;;
75135;SDS011;63707;52.212;9.540;2023-06-22T13:32:31;16.73;;;13.65;;
75135;SDS011;63707;52.212;9.540;2023-06-22T13:34:56;16.92;;;13.40;;
75135;SDS011;63707;52.212;9.540;2023-06-22T13:37:21;19.13;;;13.88;;
75135;SDS011;63707;52.212;9.540;2023-06-22T13:39:47;15.27;;;13.10;;
75135;SDS011;63707;52.212;9.540;2023-06-22T13:42:12;20.83;;;13.90;;
75135;SDS011;63707;52.212;9.540;2023-06-22T13:44:39;15.50;;;13.60;;
75135;SDS011;63707;52.212;9.540;2023-06-22T13:47:05;17.60;;;13.93;;
75135;SDS011;63707;52.212;9.540;2023-06-22T13:49:31;19.25;;;14.63;;
75135;SDS011;63707;52.212;9.540;2023-06-22T13:51:56;17.48;;;14.98;;
75135;SDS011;63707;52.212;9.540;2023-06-22T13:54:22;20.98;;;16.08;;
75135;SDS011;63707;52.212;9.540;2023-06-22T13:56:47;22.20;;;16.88;;
75135;SDS011;63707;52.212;9.540;2023-06-22T13:59:13;21.63;;;16.80;;
75135;SDS011;63707;52.212;9.540;2023-06-22T14:01:40;21.83;;;16.88;;
75135;SDS011;63707;52.212;9.540;2023-06-22T14:04:06;22.48;;;17.98;;
75135;SDS011;63707;52.212;9.540;2023-06-22T14:06:31;20.60;;;17.65;;
75135;SDS011;63707;52.212;9.540;2023-06-22T14:08:57;25.38;;;18.40;;
75135;SDS011;63707;52.212;9.540;2023-06-22T14:11:22;22.30;;;17.30;;
75135;SDS011;63707;52.212;9.540;2023-06-22T14:13:48;22.58;;;17.02;;
75135;SDS011;63707;52.212;9.540;2023-06-22T14:16:13;19.48;;;16.20;;
75135;SDS011;63707;52.212;9.540;2023-06-22T14:18:40;21.50;;;17.35;;
75135;SDS011;63707;52.212;9.540;2023-06-22T14:21:05;20.98;;;18.25;;